sensor_id;sensor_type;location;lat;lon;timestamp;pressure;altitude;pressure_sealevel;temperature;humidity
37778;BME280;23615;51.506;7.678;2023-02-15T00:01:25;101332.03;;;4.35;89.75
37778;BME280;23615;51.506;7.678;2023-02-15T00:03:51;101332.16;;;4.34;89.81
37778;BME280;23615;51.506;7.678;2023-02-15T00:06:16;101328.84;;;4.32;89.28
37778;BME280;23615;51.506;7.678;2023-02-15T00:08:42;101321.06;;;4.30;89.38
37778;BME280;23615;51.506;7.678;2023-02-15T00:11:15;101314.66;;;4.33;89.73
37778;BME280;23615;51.506;7.678;2023-02-15T00:13:41;101318.97;;;4.34;89.51
37778;BME280;23615;51.506;7.678;2023-02-15T00:16:08;101317.84;;;4.36;89.05
37778;BME280;23615;51.506;7.678;2023-02-15T00:18:34;101325.91;;;4.35;89.15
37778;BME280;23615;51.506;7.678;2023-02-15T00:21:04;101317.59;;;4.47;88.12
37778;BME280;23615;51.506;7.678;2023-02-15T00:23:29;101308.41;;;4.34;88.96
37778;BME280;23615;51.506;7.678;2023-02-15T00:26:06;101305.53;;;4.27;88.98
37778;BME280;23615;51.506;7.678;2023-02-15T00:28:31;101303.88;;;4.26;89.04
37778;BME280;23615;51.506;7.678;2023-02-15T00:31:09;101297.06;;;4.24;89.29
37778;BME280;23615;51.506;7.678;2023-02-15T00:33:36;101299.03;;;4.22;89.42
37778;BME280;23615;51.506;7.678;2023-02-15T00:36:02;101299.84;;;4.22;89.03
37778;BME280;23615;51.506;7.678;2023-02-15T00:38:29;101296.22;;;4.05;88.44
37778;BME280;23615;51.506;7.678;2023-02-15T00:40:55;101293.50;;;3.97;88.72
37778;BME280;23615;51.506;7.678;2023-02-15T00:43:21;101296.16;;;3.97;88.04
37778;BME280;23615;51.506;7.678;2023-02-15T00:45:46;101295.09;;;3.90;88.45
37778;BME280;23615;51.506;7.678;2023-02-15T00:48:12;101293.56;;;3.88;89.07
37778;BME280;23615;51.506;7.678;2023-02-15T00:50:37;101302.03;;;3.91;88.94
37778;BME280;23615;51.506;7.678;2023-02-15T00:53:02;101304.69;;;3.91;89.20
37778;BME280;23615;51.506;7.678;2023-02-15T00:55:27;101300.38;;;3.90;89.56
37778;BME280;23615;51.506;7.678;2023-02-15T00:57:53;101297.06;;;3.88;89.51
37778;BME280;23615;51.506;7.678;2023-02-15T01:00:18;101294.69;;;3.85;88.63
37778;BME280;23615;51.506;7.678;2023-02-15T01:02:43;101294.91;;;3.74;88.49
37778;BME280;23615;51.506;7.678;2023-02-15T01:05:09;101294.91;;;3.74;88.25
37778;BME280;23615;51.506;7.678;2023-02-15T01:07:34;101287.50;;;3.60;88.73
37778;BME280;23615;51.506;7.678;2023-02-15T01:09:59;101292.53;;;3.53;88.25
37778;BME280;23615;51.506;7.678;2023-02-15T01:12:25;101298.94;;;3.51;88.88
37778;BME280;23615;51.506;7.678;2023-02-15T01:14:50;101295.59;;;3.49;89.05
37778;BME280;23615;51.506;7.678;2023-02-15T01:17:15;101304.06;;;3.52;89.35
37778;BME280;23615;51.506;7.678;2023-02-15T01:19:40;101296.97;;;3.53;89.04
37778;BME280;23615;51.506;7.678;2023-02-15T01:22:06;101292.97;;;3.49;89.47
37778;BME280;23615;51.506;7.678;2023-02-15T01:24:31;101294.06;;;3.46;88.69
37778;BME280;23615;51.506;7.678;2023-02-15T01:26:57;101296.03;;;3.44;89.67
37778;BME280;23615;51.506;7.678;2023-02-15T01:29:22;101287.31;;;3.44;89.17
37778;BME280;23615;51.506;7.678;2023-02-15T01:31:47;101291.50;;;3.36;88.57
37778;BME280;23615;51.506;7.678;2023-02-15T01:34:13;101292.06;;;3.30;88.63
37778;BME280;23615;51.506;7.678;2023-02-15T01:36:38;101285.81;;;3.31;88.69
37778;BME280;23615;51.506;7.678;2023-02-15T01:39:03;101280.53;;;3.31;89.08
37778;BME280;23615;51.506;7.678;2023-02-15T01:41:28;101282.22;;;3.32;89.50
37778;BME280;23615;51.506;7.678;2023-02-15T01:43:57;101278.75;;;3.32;89.50
37778;BME280;23615;51.506;7.678;2023-02-15T01:46:27;101277.50;;;3.36;88.90
37778;BME280;23615;51.506;7.678;2023-02-15T01:49:14;101273.28;;;3.43;89.54
37778;BME280;23615;51.506;7.678;2023-02-15T01:51:42;101271.47;;;3.44;89.58
37778;BME280;23615;51.506;7.678;2023-02-15T01:54:17;101269.66;;;3.44;88.87
37778;BME280;23615;51.506;7.678;2023-02-15T01:56:46;101260.94;;;3.44;89.48
37778;BME280;23615;51.506;7.678;2023-02-15T01:59:16;101265.22;;;3.45;89.21
37778;BME280;23615;51.506;7.678;2023-02-15T02:01:43;101263.25;;;3.47;89.15
37778;BME280;23615;51.506;7.678;2023-02-15T02:04:39;101262.97;;;3.50;89.22
37778;BME280;23615;51.506;7.678;2023-02-15T02:07:07;101254.22;;;3.49;89.53
37778;BME280;23615;51.506;7.678;2023-02-15T02:09:34;101246.16;;;3.51;89.27
37778;BME280;23615;51.506;7.678;2023-02-15T02:12:01;101247.41;;;3.47;88.89
37778;BME280;23615;51.506;7.678;2023-02-15T02:14:26;101240.78;;;3.43;89.42
37778;BME280;23615;51.506;7.678;2023-02-15T02:30:45;101218.91;;;3.95;88.47
37778;BME280;23615;51.506;7.678;2023-02-15T02:33:24;101210.97;;;3.60;88.76
37778;BME280;23615;51.506;7.678;2023-02-15T02:38:33;101216.84;;;3.54;89.38
37778;BME280;23615;51.506;7.678;2023-02-15T02:41:21;101208.53;;;3.49;90.27
37778;BME280;23615;51.506;7.678;2023-02-15T02:44:00;101216.16;;;3.52;89.63
37778;BME280;23615;51.506;7.678;2023-02-15T02:46:37;101224.09;;;3.52;89.16
37778;BME280;23615;51.506;7.678;2023-02-15T02:49:03;101202.13;;;3.51;89.99
37778;BME280;23615;51.506;7.678;2023-02-15T02:51:28;101208.97;;;3.71;88.52
37778;BME280;23615;51.506;7.678;2023-02-15T02:53:56;101202.84;;;3.71;88.94
37778;BME280;23615;51.506;7.678;2023-02-15T02:56:31;101199.59;;;3.59;88.83
37778;BME280;23615;51.506;7.678;2023-02-15T02:59:21;101196.41;;;3.56;89.35
37778;BME280;23615;51.506;7.678;2023-02-15T03:01:55;101189.19;;;3.58;89.26
37778;BME280;23615;51.506;7.678;2023-02-15T03:04:28;101193.31;;;3.43;89.25
37778;BME280;23615;51.506;7.678;2023-02-15T03:07:02;101193.22;;;3.34;90.13
37778;BME280;23615;51.506;7.678;2023-02-15T03:09:34;101202.34;;;3.40;90.08
37778;BME280;23615;51.506;7.678;2023-02-15T03:12:11;101196.22;;;3.39;89.89
37778;BME280;23615;51.506;7.678;2023-02-15T03:14:38;101189.63;;;3.35;90.39
37778;BME280;23615;51.506;7.678;2023-02-15T03:17:06;101195.88;;;3.34;90.38
37778;BME280;23615;51.506;7.678;2023-02-15T03:19:34;101198.41;;;3.26;90.20
37778;BME280;23615;51.506;7.678;2023-02-15T03:22:53;101186.72;;;3.29;90.60
37778;BME280;23615;51.506;7.678;2023-02-15T03:25:11;101193.09;;;3.36;90.79
37778;BME280;23615;51.506;7.678;2023-02-15T03:27:43;101184.72;;;3.41;90.34
37778;BME280;23615;51.506;7.678;2023-02-15T03:30:10;101184.72;;;3.41;90.53
37778;BME280;23615;51.506;7.678;2023-02-15T03:32:39;101180.13;;;3.43;89.79
37778;BME280;23615;51.506;7.678;2023-02-15T03:35:06;101189.16;;;3.40;89.88
37778;BME280;23615;51.506;7.678;2023-02-15T03:37:36;101189.44;;;3.37;90.07
37778;BME280;23615;51.506;7.678;2023-02-15T03:40:09;101178.09;;;3.36;90.02
37778;BME280;23615;51.506;7.678;2023-02-15T03:43:04;101182.69;;;3.34;89.83
37778;BME280;23615;51.506;7.678;2023-02-15T03:45:35;101184.63;;;3.32;89.68
37778;BME280;23615;51.506;7.678;2023-02-15T03:48:03;101183.25;;;3.28;89.70
37778;BME280;23615;51.506;7.678;2023-02-15T03:50:32;101185.06;;;3.28;90.24
37778;BME280;23615;51.506;7.678;2023-02-15T03:53:21;101187.47;;;3.21;89.26
37778;BME280;23615;51.506;7.678;2023-02-15T03:55:49;101187.78;;;3.18;89.57
37778;BME280;23615;51.506;7.678;2023-02-15T03:58:14;101187.09;;;3.16;89.60
37778;BME280;23615;51.506;7.678;2023-02-15T04:01:00;101178.09;;;3.09;90.19
37778;BME280;23615;51.506;7.678;2023-02-15T04:04:01;101175.06;;;3.04;90.16
37778;BME280;23615;51.506;7.678;2023-02-15T04:06:28;101171.06;;;3.00;90.04
37778;BME280;23615;51.506;7.678;2023-02-15T04:08:53;101173.44;;;2.93;89.71
37778;BME280;23615;51.506;7.678;2023-02-15T04:11:37;101172.66;;;2.83;89.66
37778;BME280;23615;51.506;7.678;2023-02-15T04:14:02;101174.06;;;2.78;89.65
37778;BME280;23615;51.506;7.678;2023-02-15T04:16:47;101172.31;;;2.69;89.32
37778;BME280;23615;51.506;7.678;2023-02-15T04:19:13;101167.75;;;2.61;89.25
37778;BME280;23615;51.506;7.678;2023-02-15T04:21:56;101172.91;;;2.62;89.91
37778;BME280;23615;51.506;7.678;2023-02-15T04:24:40;101173.56;;;2.64;90.06
37778;BME280;23615;51.506;7.678;2023-02-15T04:27:24;101175.63;;;2.71;89.82
37778;BME280;23615;51.506;7.678;2023-02-15T04:29:50;101174.81;;;2.70;89.74
37778;BME280;23615;51.506;7.678;2023-02-15T04:32:15;101173.69;;;2.73;89.99
37778;BME280;23615;51.506;7.678;2023-02-15T04:34:40;101174.34;;;2.75;90.46
37778;BME280;23615;51.506;7.678;2023-02-15T04:37:05;101180.59;;;2.74;90.23
37778;BME280;23615;51.506;7.678;2023-02-15T04:39:31;101164.50;;;2.77;90.77
37778;BME280;23615;51.506;7.678;2023-02-15T04:41:57;101160.75;;;2.79;90.34
37778;BME280;23615;51.506;7.678;2023-02-15T04:44:22;101166.16;;;2.78;90.90
37778;BME280;23615;51.506;7.678;2023-02-15T04:46:48;101162.69;;;2.77;90.71
37778;BME280;23615;51.506;7.678;2023-02-15T04:49:14;101163.25;;;2.81;90.77
37778;BME280;23615;51.506;7.678;2023-02-15T04:51:39;101163.41;;;2.79;91.06
37778;BME280;23615;51.506;7.678;2023-02-15T04:54:05;101162.28;;;2.82;90.74
37778;BME280;23615;51.506;7.678;2023-02-15T04:56:30;101153.94;;;2.86;91.28
37778;BME280;23615;51.506;7.678;2023-02-15T04:58:58;101154.22;;;2.83;91.35
37778;BME280;23615;51.506;7.678;2023-02-15T05:01:23;101154.22;;;2.83;91.28
37778;BME280;23615;51.506;7.678;2023-02-15T05:03:48;101150.75;;;2.83;91.01
37778;BME280;23615;51.506;7.678;2023-02-15T05:06:13;101152.53;;;2.82;90.96
37778;BME280;23615;51.506;7.678;2023-02-15T05:08:39;101149.09;;;2.82;91.46
37778;BME280;23615;51.506;7.678;2023-02-15T05:11:04;101155.03;;;2.84;91.49
37778;BME280;23615;51.506;7.678;2023-02-15T05:13:29;101152.41;;;2.84;91.56
37778;BME280;23615;51.506;7.678;2023-02-15T05:15:54;101152.94;;;2.87;91.57
37778;BME280;23615;51.506;7.678;2023-02-15T05:18:22;101146.84;;;2.87;91.65
37778;BME280;23615;51.506;7.678;2023-02-15T05:20:48;101147.00;;;2.85;91.51
37778;BME280;23615;51.506;7.678;2023-02-15T05:23:13;101144.91;;;2.89;91.26
37778;BME280;23615;51.506;7.678;2023-02-15T05:25:39;101144.13;;;3.06;93.78
37778;BME280;23615;51.506;7.678;2023-02-15T05:28:24;101139.72;;;3.24;93.85
37778;BME280;23615;51.506;7.678;2023-02-15T05:31:36;101141.88;;;3.29;92.73
37778;BME280;23615;51.506;7.678;2023-02-15T05:33:37;101135.84;;;3.19;92.52
37778;BME280;23615;51.506;7.678;2023-02-15T05:36:03;101132.47;;;3.09;91.68
37778;BME280;23615;51.506;7.678;2023-02-15T05:38:29;101139.44;;;3.00;92.34
37778;BME280;23615;51.506;7.678;2023-02-15T05:40:55;101135.44;;;2.96;92.35
37778;BME280;23615;51.506;7.678;2023-02-15T05:43:21;101135.06;;;2.91;92.17
37778;BME280;23615;51.506;7.678;2023-02-15T05:45:48;101137.84;;;2.89;91.98
37778;BME280;23615;51.506;7.678;2023-02-15T05:48:14;101139.78;;;2.87;92.29
37778;BME280;23615;51.506;7.678;2023-02-15T05:50:40;101134.28;;;2.81;92.25
37778;BME280;23615;51.506;7.678;2023-02-15T05:53:05;101129.13;;;2.79;92.67
37778;BME280;23615;51.506;7.678;2023-02-15T05:55:30;101132.88;;;2.77;91.96
37778;BME280;23615;51.506;7.678;2023-02-15T05:57:55;101126.66;;;2.78;92.14
37778;BME280;23615;51.506;7.678;2023-02-15T06:00:21;101118.06;;;2.76;92.23
37778;BME280;23615;51.506;7.678;2023-02-15T06:02:46;101123.47;;;2.74;92.29
37778;BME280;23615;51.506;7.678;2023-02-15T06:05:12;101121.66;;;2.75;91.48
37778;BME280;23615;51.506;7.678;2023-02-15T06:07:37;101113.22;;;2.71;91.95
37778;BME280;23615;51.506;7.678;2023-02-15T06:10:03;101116.84;;;2.70;91.93
37778;BME280;23615;51.506;7.678;2023-02-15T06:12:28;101119.63;;;2.69;91.96
37778;BME280;23615;51.506;7.678;2023-02-15T06:14:54;101117.13;;;2.67;92.56
37778;BME280;23615;51.506;7.678;2023-02-15T06:17:19;101121.56;;;2.67;92.63
37778;BME280;23615;51.506;7.678;2023-02-15T06:19:46;101119.75;;;2.67;92.63
37778;BME280;23615;51.506;7.678;2023-02-15T06:22:12;101130.97;;;2.69;92.63
37778;BME280;23615;51.506;7.678;2023-02-15T06:24:39;101132.34;;;2.73;92.50
37778;BME280;23615;51.506;7.678;2023-02-15T06:27:05;101136.81;;;2.73;92.56
37778;BME280;23615;51.506;7.678;2023-02-15T06:29:30;101136.63;;;2.74;92.43
37778;BME280;23615;51.506;7.678;2023-02-15T06:31:55;101132.19;;;2.75;92.66
37778;BME280;23615;51.506;7.678;2023-02-15T06:34:20;101124.28;;;2.75;92.15
37778;BME280;23615;51.506;7.678;2023-02-15T06:36:46;101127.25;;;2.72;92.82
37778;BME280;23615;51.506;7.678;2023-02-15T06:39:11;101126.25;;;2.73;92.19
37778;BME280;23615;51.506;7.678;2023-02-15T06:41:36;101129.69;;;2.73;92.16
37778;BME280;23615;51.506;7.678;2023-02-15T06:44:02;101130.84;;;2.71;92.71
37778;BME280;23615;51.506;7.678;2023-02-15T06:46:27;101124.44;;;2.73;92.52
37778;BME280;23615;51.506;7.678;2023-02-15T06:48:53;101131.53;;;2.73;92.68
37778;BME280;23615;51.506;7.678;2023-02-15T06:51:18;101134.59;;;2.68;92.09
37778;BME280;23615;51.506;7.678;2023-02-15T06:53:43;101140.69;;;2.69;91.98
37778;BME280;23615;51.506;7.678;2023-02-15T06:56:10;101131.25;;;2.66;91.79
37778;BME280;23615;51.506;7.678;2023-02-15T06:58:37;101137.50;;;2.65;92.27
37778;BME280;23615;51.506;7.678;2023-02-15T07:01:02;101127.41;;;2.60;92.29
37778;BME280;23615;51.506;7.678;2023-02-15T07:03:28;101134.50;;;2.60;92.12
37778;BME280;23615;51.506;7.678;2023-02-15T07:05:55;101126.44;;;2.61;92.46
37778;BME280;23615;51.506;7.678;2023-02-15T07:08:21;101130.31;;;2.57;92.27
37778;BME280;23615;51.506;7.678;2023-02-15T07:10:46;101129.34;;;2.58;92.61
37778;BME280;23615;51.506;7.678;2023-02-15T07:13:13;101128.84;;;2.55;91.99
37778;BME280;23615;51.506;7.678;2023-02-15T07:15:38;101136.88;;;2.53;92.45
37778;BME280;23615;51.506;7.678;2023-02-15T07:18:03;101130.63;;;2.54;92.48
37778;BME280;23615;51.506;7.678;2023-02-15T07:20:30;101134.09;;;2.55;93.03
37778;BME280;23615;51.506;7.678;2023-02-15T07:22:55;101131.16;;;2.58;92.25
37778;BME280;23615;51.506;7.678;2023-02-15T07:25:20;101126.88;;;2.57;92.96
37778;BME280;23615;51.506;7.678;2023-02-15T07:27:46;101118.81;;;2.58;92.52
37778;BME280;23615;51.506;7.678;2023-02-15T07:30:14;101120.34;;;2.61;93.04
37778;BME280;23615;51.506;7.678;2023-02-15T07:32:39;101119.66;;;2.59;92.99
37778;BME280;23615;51.506;7.678;2023-02-15T07:35:24;101116.75;;;2.62;92.99
37778;BME280;23615;51.506;7.678;2023-02-15T07:37:50;101119.91;;;2.66;93.18
37778;BME280;23615;51.506;7.678;2023-02-15T07:40:15;101116.28;;;2.67;92.57
37778;BME280;23615;51.506;7.678;2023-02-15T07:42:40;101112.53;;;2.69;93.05
37778;BME280;23615;51.506;7.678;2023-02-15T07:45:06;101103.66;;;2.70;93.05
37778;BME280;23615;51.506;7.678;2023-02-15T07:47:31;101118.06;;;2.76;93.02
37778;BME280;23615;51.506;7.678;2023-02-15T07:49:56;101101.41;;;2.75;93.17
37778;BME280;23615;51.506;7.678;2023-02-15T07:52:22;101100.28;;;2.78;92.64
37778;BME280;23615;51.506;7.678;2023-02-15T07:54:47;101094.56;;;2.82;92.76
37778;BME280;23615;51.506;7.678;2023-02-15T07:57:12;101093.47;;;2.85;92.75
37778;BME280;23615;51.506;7.678;2023-02-15T07:59:38;101089.56;;;2.89;92.67
37778;BME280;23615;51.506;7.678;2023-02-15T08:02:08;101094.38;;;2.93;93.34
37778;BME280;23615;51.506;7.678;2023-02-15T08:04:34;101086.34;;;3.13;92.63
37778;BME280;23615;51.506;7.678;2023-02-15T08:06:59;101082.81;;;3.04;93.31
37778;BME280;23615;51.506;7.678;2023-02-15T08:09:24;101084.59;;;3.04;93.33
37778;BME280;23615;51.506;7.678;2023-02-15T08:11:50;101079.03;;;3.07;93.28
37778;BME280;23615;51.506;7.678;2023-02-15T08:14:17;101082.66;;;3.59;92.20
37778;BME280;23615;51.506;7.678;2023-02-15T08:16:46;101078.91;;;3.44;91.40
37778;BME280;23615;51.506;7.678;2023-02-15T08:21:41;101074.47;;;3.44;91.86
37778;BME280;23615;51.506;7.678;2023-02-15T08:24:08;101077.41;;;3.41;92.52
37778;BME280;23615;51.506;7.678;2023-02-15T08:26:34;101075.28;;;3.45;92.20
37778;BME280;23615;51.506;7.678;2023-02-15T08:29:01;101082.53;;;3.43;92.45
37778;BME280;23615;51.506;7.678;2023-02-15T08:31:27;101061.25;;;3.62;92.53
37778;BME280;23615;51.506;7.678;2023-02-15T08:33:54;101066.63;;;3.52;92.12
37778;BME280;23615;51.506;7.678;2023-02-15T08:36:22;101061.56;;;3.59;92.63
37778;BME280;23615;51.506;7.678;2023-02-15T08:38:49;101075.94;;;3.64;92.59
37778;BME280;23615;51.506;7.678;2023-02-15T08:41:16;101065.78;;;3.69;91.94
37778;BME280;23615;51.506;7.678;2023-02-15T08:43:42;101062.44;;;3.67;92.95
37778;BME280;23615;51.506;7.678;2023-02-15T08:46:09;101058.88;;;3.76;91.96
37778;BME280;23615;51.506;7.678;2023-02-15T08:48:35;101070.66;;;3.82;92.29
37778;BME280;23615;51.506;7.678;2023-02-15T08:51:08;101060.16;;;3.90;92.28
37778;BME280;23615;51.506;7.678;2023-02-15T08:53:36;101057.34;;;3.92;92.24
37778;BME280;23615;51.506;7.678;2023-02-15T08:56:01;101057.34;;;3.92;92.73
37778;BME280;23615;51.506;7.678;2023-02-15T08:58:28;101052.88;;;3.92;92.74
37778;BME280;23615;51.506;7.678;2023-02-15T09:00:54;101044.66;;;3.95;92.56
37778;BME280;23615;51.506;7.678;2023-02-15T09:03:19;101047.34;;;4.03;93.12
37778;BME280;23615;51.506;7.678;2023-02-15T09:05:44;101048.25;;;4.20;92.41
37778;BME280;23615;51.506;7.678;2023-02-15T09:08:09;101038.56;;;4.29;92.05
37778;BME280;23615;51.506;7.678;2023-02-15T09:10:35;101045.84;;;4.27;91.99
37778;BME280;23615;51.506;7.678;2023-02-15T09:13:00;101043.16;;;4.19;91.76
37778;BME280;23615;51.506;7.678;2023-02-15T09:15:25;101042.03;;;4.29;91.66
37778;BME280;23615;51.506;7.678;2023-02-15T09:17:51;101039.91;;;4.33;92.35
37778;BME280;23615;51.506;7.678;2023-02-15T09:20:16;101039.78;;;4.34;91.54
37778;BME280;23615;51.506;7.678;2023-02-15T09:22:41;101042.16;;;4.54;91.80
37778;BME280;23615;51.506;7.678;2023-02-15T09:25:07;101042.31;;;4.52;92.28
37778;BME280;23615;51.506;7.678;2023-02-15T09:27:32;101048.09;;;4.56;91.88
37778;BME280;23615;51.506;7.678;2023-02-15T09:29:57;101036.06;;;4.53;92.08
37778;BME280;23615;51.506;7.678;2023-02-15T09:32:23;101034.41;;;4.60;91.85
37778;BME280;23615;51.506;7.678;2023-02-15T09:34:48;101038.88;;;4.60;92.48
37778;BME280;23615;51.506;7.678;2023-02-15T09:37:14;101047.34;;;4.71;92.02
37778;BME280;23615;51.506;7.678;2023-02-15T09:39:40;101030.38;;;4.90;91.45
37778;BME280;23615;51.506;7.678;2023-02-15T09:44:49;101034.34;;;5.02;91.18
37778;BME280;23615;51.506;7.678;2023-02-15T09:50:29;101027.78;;;5.22;91.02
37778;BME280;23615;51.506;7.678;2023-02-15T10:04:22;101018.34;;;5.69;90.10
37778;BME280;23615;51.506;7.678;2023-02-15T10:15:29;101023.44;;;6.19;89.52
37778;BME280;23615;51.506;7.678;2023-02-15T10:20:52;101012.41;;;6.38;88.97
37778;BME280;23615;51.506;7.678;2023-02-15T10:26:17;101020.16;;;6.48;88.16
37778;BME280;23615;51.506;7.678;2023-02-15T10:28:50;101034.88;;;6.50;88.71
37778;BME280;23615;51.506;7.678;2023-02-15T10:31:37;101028.19;;;6.70;88.19
37778;BME280;23615;51.506;7.678;2023-02-15T10:34:16;101025.97;;;6.82;85.62
37778;BME280;23615;51.506;7.678;2023-02-15T10:36:48;101026.84;;;6.97;85.44
37778;BME280;23615;51.506;7.678;2023-02-15T10:42:30;101027.09;;;7.10;84.58
37778;BME280;23615;51.506;7.678;2023-02-15T10:45:26;101017.50;;;7.09;84.91
37778;BME280;23615;51.506;7.678;2023-02-15T10:48:21;101022.63;;;7.34;85.02
37778;BME280;23615;51.506;7.678;2023-02-15T10:51:00;101020.72;;;7.42;84.58
37778;BME280;23615;51.506;7.678;2023-02-15T10:59:15;101012.22;;;7.47;86.06
37778;BME280;23615;51.506;7.678;2023-02-15T11:06:51;101004.41;;;7.68;85.54
37778;BME280;23615;51.506;7.678;2023-02-15T11:09:20;101014.97;;;8.06;84.86
37778;BME280;23615;51.506;7.678;2023-02-15T11:11:52;101001.22;;;8.61;80.61
37778;BME280;23615;51.506;7.678;2023-02-15T11:14:49;100999.72;;;9.09;79.20
37778;BME280;23615;51.506;7.678;2023-02-15T11:17:21;101002.13;;;9.25;77.93
37778;BME280;23615;51.506;7.678;2023-02-15T11:19:56;101004.31;;;9.22;78.42
37778;BME280;23615;51.506;7.678;2023-02-15T11:22:25;100991.91;;;9.08;78.79
37778;BME280;23615;51.506;7.678;2023-02-15T11:24:51;101001.84;;;8.99;79.35
37778;BME280;23615;51.506;7.678;2023-02-15T11:27:22;100990.25;;;9.07;80.81
37778;BME280;23615;51.506;7.678;2023-02-15T11:32:39;100987.78;;;9.26;80.50
37778;BME280;23615;51.506;7.678;2023-02-15T11:37:40;100985.03;;;9.41;79.73
37778;BME280;23615;51.506;7.678;2023-02-15T11:42:47;100983.25;;;9.48;79.55
37778;BME280;23615;51.506;7.678;2023-02-15T11:45:32;100976.41;;;9.67;79.96
37778;BME280;23615;51.506;7.678;2023-02-15T11:47:59;100975.84;;;9.71;80.33
37778;BME280;23615;51.506;7.678;2023-02-15T11:50:29;100978.66;;;9.91;79.85
37778;BME280;23615;51.506;7.678;2023-02-15T11:52:58;100976.88;;;10.05;79.17
37778;BME280;23615;51.506;7.678;2023-02-15T11:55:26;100971.88;;;10.23;78.36
37778;BME280;23615;51.506;7.678;2023-02-15T11:58:02;100967.56;;;10.22;76.98
37778;BME280;23615;51.506;7.678;2023-02-15T12:00:35;100971.34;;;10.41;77.24
37778;BME280;23615;51.506;7.678;2023-02-15T12:03:21;100956.63;;;10.58;76.51
37778;BME280;23615;51.506;7.678;2023-02-15T12:05:52;100951.94;;;10.67;76.08
37778;BME280;23615;51.506;7.678;2023-02-15T12:08:19;100951.97;;;10.86;74.01
37778;BME280;23615;51.506;7.678;2023-02-15T12:11:09;100941.09;;;10.88;74.15
37778;BME280;23615;51.506;7.678;2023-02-15T12:13:53;100938.44;;;10.88;74.33
37778;BME280;23615;51.506;7.678;2023-02-15T12:16:19;100940.72;;;10.91;73.64
37778;BME280;23615;51.506;7.678;2023-02-15T12:18:46;100943.19;;;11.06;73.88
37778;BME280;23615;51.506;7.678;2023-02-15T12:21:15;100942.56;;;11.23;74.47
37778;BME280;23615;51.506;7.678;2023-02-15T12:23:46;100934.16;;;11.33;73.26
37778;BME280;23615;51.506;7.678;2023-02-15T12:26:13;100934.53;;;11.56;71.40
37778;BME280;23615;51.506;7.678;2023-02-15T12:28:42;100930.03;;;11.63;70.06
37778;BME280;23615;51.506;7.678;2023-02-15T12:31:28;100935.56;;;11.69;70.29
37778;BME280;23615;51.506;7.678;2023-02-15T12:33:57;100933.50;;;11.84;70.65
37778;BME280;23615;51.506;7.678;2023-02-15T12:36:30;100934.72;;;11.88;69.68
37778;BME280;23615;51.506;7.678;2023-02-15T12:39:16;100924.59;;;12.03;70.32
37778;BME280;23615;51.506;7.678;2023-02-15T12:41:59;100923.97;;;12.08;71.45
37778;BME280;23615;51.506;7.678;2023-02-15T12:44:29;100926.22;;;12.17;70.32
37778;BME280;23615;51.506;7.678;2023-02-15T12:49:40;100919.97;;;12.74;61.92
37778;BME280;23615;51.506;7.678;2023-02-15T12:52:23;100919.59;;;12.96;61.44
37778;BME280;23615;51.506;7.678;2023-02-15T12:54:50;100916.00;;;13.08;60.71
37778;BME280;23615;51.506;7.678;2023-02-15T12:57:28;100912.38;;;12.96;61.65
37778;BME280;23615;51.506;7.678;2023-02-15T12:59:57;100914.72;;;12.86;61.28
37778;BME280;23615;51.506;7.678;2023-02-15T13:02:41;100910.34;;;12.60;63.30
37778;BME280;23615;51.506;7.678;2023-02-15T13:05:29;100913.22;;;12.59;63.71
37778;BME280;23615;51.506;7.678;2023-02-15T13:07:58;100904.38;;;12.58;63.92
37778;BME280;23615;51.506;7.678;2023-02-15T13:10:27;100905.00;;;12.60;64.47
37778;BME280;23615;51.506;7.678;2023-02-15T13:12:54;100890.31;;;12.69;63.78
37778;BME280;23615;51.506;7.678;2023-02-15T13:15:27;100896.78;;;12.87;62.98
37778;BME280;23615;51.506;7.678;2023-02-15T13:17:55;100889.84;;;13.04;60.63
37778;BME280;23615;51.506;7.678;2023-02-15T13:20:22;100882.41;;;13.06;61.93
37778;BME280;23615;51.506;7.678;2023-02-15T13:22:57;100885.53;;;13.03;62.79
37778;BME280;23615;51.506;7.678;2023-02-15T13:25:25;100882.56;;;13.18;61.22
37778;BME280;23615;51.506;7.678;2023-02-15T13:27:54;100876.41;;;13.10;62.34
37778;BME280;23615;51.506;7.678;2023-02-15T13:30:25;100880.31;;;13.15;62.53
37778;BME280;23615;51.506;7.678;2023-02-15T13:33:02;100870.53;;;13.27;63.92
37778;BME280;23615;51.506;7.678;2023-02-15T13:35:34;100862.22;;;13.53;60.51
37778;BME280;23615;51.506;7.678;2023-02-15T13:40:58;100867.94;;;13.57;63.16
37778;BME280;23615;51.506;7.678;2023-02-15T13:43:56;100858.00;;;13.64;63.12
37778;BME280;23615;51.506;7.678;2023-02-15T13:49:43;100853.16;;;13.91;62.51
37778;BME280;23615;51.506;7.678;2023-02-15T13:52:22;100851.66;;;13.76;59.38
37778;BME280;23615;51.506;7.678;2023-02-15T13:57:33;100852.63;;;13.82;57.87
37778;BME280;23615;51.506;7.678;2023-02-15T14:03:10;100852.59;;;14.18;57.46
37778;BME280;23615;51.506;7.678;2023-02-15T14:09:16;100844.78;;;13.99;60.46
37778;BME280;23615;51.506;7.678;2023-02-15T14:11:55;100847.47;;;13.99;58.21
37778;BME280;23615;51.506;7.678;2023-02-15T14:17:26;100833.06;;;13.93;60.16
37778;BME280;23615;51.506;7.678;2023-02-15T14:20:14;100836.00;;;13.92;59.35
37778;BME280;23615;51.506;7.678;2023-02-15T14:22:44;100837.09;;;14.02;60.23
37778;BME280;23615;51.506;7.678;2023-02-15T14:28:02;100832.97;;;14.18;60.16
37778;BME280;23615;51.506;7.678;2023-02-15T14:30:34;100838.84;;;14.27;60.71
37778;BME280;23615;51.506;7.678;2023-02-15T14:33:52;100825.88;;;14.23;58.75
37778;BME280;23615;51.506;7.678;2023-02-15T14:36:16;100827.25;;;14.14;59.79
37778;BME280;23615;51.506;7.678;2023-02-15T14:39:19;100828.09;;;13.97;60.09
37778;BME280;23615;51.506;7.678;2023-02-15T14:42:12;100828.34;;;14.25;61.51
37778;BME280;23615;51.506;7.678;2023-02-15T14:44:47;100822.38;;;14.23;60.31
37778;BME280;23615;51.506;7.678;2023-02-15T14:47:19;100825.78;;;14.30;58.30
37778;BME280;23615;51.506;7.678;2023-02-15T14:49:47;100817.47;;;14.20;58.42